KLAN/LAN METAR and TAF weather

Enter ICAO airport designator
Station Type Date Time Source
KLAN METAR 2020/01/28 20:53 UTC NOAA

KLAN 282053Z 28004KT 10SM OVC031 00/M03 A3002 RMK AO2 SLP176 T00001033 53000


Station Type Date Time Source
KLAN Decoded METAR 2020/01/28 20:53 UTC NOAA

CAPITAL CITY AIRPORT, MI, United States (KLAN) 42-47N 084-35W 264M
Jan 28, 2020 - 03:53 PM EST / 2020.01.28 2053 UTC
Wind: from the W (280 degrees) at 5 MPH (4 KT):0
Visibility: 10 mile(s):0
Sky conditions: overcast
Temperature: 32.0 F (0.0 C)
Windchill: 26 F (-3 C):1
Dew Point: 26.1 F (-3.3 C)
Relative Humidity: 78%
Pressure (altimeter): 30.02 in. Hg (1016 hPa)
Pressure tendency: 0.00 inches (0.0 hPa) higher than three hours ago
ob: KLAN 282053Z 28004KT 10SM OVC031 00/M03 A3002 RMK AO2 SLP176 T00001033 53000
cycle: 21

Station Type Date Time Source
KLAN TAF 2020/01/28 18:45 UTC NOAA

TAF KLAN 281743Z 2818/2918 27007KT P6SM OVC020
FM290900 00000KT P6SM BKN016
FM291600 00000KT P6SM OVC020

Example: see airport list